Time;durP1;ratioP1;P1;durP2;ratioP2;P2;SDS_P1;SDS_P2;PMS_P1;PMS_P2;Temp;Humidity;BMP_temperature;BMP_pressure;BME280_temperature;BME280_humidity;BME280_pressure;Samples;Min_cycle;Max_cycle;Signal;HPM_P1;HPM_P2
2023/06/29 00:00:39;;;;;;;5.23;3.13;;;;;;;23.36;43.19;97516.78;5095045;28;20465;-68
2023/06/29 00:03:05;;;;;;;4.93;3.40;;;;;;;23.28;43.35;97512.56;5087778;28;20242;-68
2023/06/29 00:05:30;;;;;;;6.57;3.33;;;;;;;23.16;43.23;97518.66;5103336;28;20550;-69
2023/06/29 00:07:58;;;;;;;6.63;3.57;;;;;;;23.07;43.47;97519.97;5094635;28;20278;-69
2023/06/29 00:10:24;;;;;;;5.80;4.10;;;;;;;22.98;44.12;97514.16;5087931;28;20996;-69
2023/06/29 00:12:49;;;;;;;5.60;3.50;;;;;;;23.02;43.98;97509.16;5088253;28;20478;-67
2023/06/29 00:15:15;;;;;;;3.57;3.13;;;;;;;23.00;44.05;97514.72;5089158;28;20547;-69
2023/06/29 00:17:40;;;;;;;5.63;3.43;;;;;;;22.91;44.08;97513.41;5097056;28;20562;-71
2023/06/29 00:20:10;;;;;;;5.23;3.40;;;;;;;22.88;44.41;97515.72;5089072;28;20300;-68
2023/06/29 00:22:36;;;;;;;5.70;3.70;;;;;;;22.89;44.20;97517.34;5089854;28;20193;-69
2023/06/29 00:25:02;;;;;;;3.93;3.50;;;;;;;22.91;44.19;97504.59;5096917;28;20919;-69
2023/06/29 00:27:27;;;;;;;5.33;3.73;;;;;;;22.88;44.27;97510.38;5088775;28;20734;-69
2023/06/29 00:29:53;;;;;;;4.40;3.47;;;;;;;22.85;44.33;97507.09;5088577;28;20526;-69
2023/06/29 00:32:18;;;;;;;11.30;3.70;;;;;;;22.84;44.39;97504.66;5089451;28;20309;-68
2023/06/29 00:34:44;;;;;;;4.27;3.43;;;;;;;22.78;44.67;97509.03;5090085;28;20220;-70
2023/06/29 00:37:10;;;;;;;5.60;3.63;;;;;;;22.73;44.61;97503.53;5101770;28;20208;-68
2023/06/29 00:39:35;;;;;;;5.60;3.80;;;;;;;22.69;44.62;97492.50;5099441;28;20462;-68
2023/06/29 00:42:02;;;;;;;7.13;3.73;;;;;;;22.70;44.76;97495.97;5094218;28;20192;-68
2023/06/29 00:44:27;;;;;;;5.63;3.70;;;;;;;22.65;44.82;97501.97;5092127;28;20200;-68
2023/06/29 00:46:53;;;;;;;7.13;3.77;;;;;;;22.57;45.10;97490.78;5089204;28;20493;-67
2023/06/29 00:49:19;;;;;;;6.33;3.33;;;;;;;22.57;45.17;97488.94;5069501;28;20209;-69
2023/06/29 00:51:51;;;;;;;5.90;3.40;;;;;;;22.53;45.06;97496.59;5070289;28;20186;-69
2023/06/29 00:54:17;;;;;;;6.60;3.60;;;;;;;22.53;45.19;97491.25;5070131;28;20220;-68
2023/06/29 00:56:43;;;;;;;5.50;3.30;;;;;;;22.49;45.20;97484.72;5091223;28;20456;-68
2023/06/29 00:59:08;;;;;;;4.07;3.67;;;;;;;22.46;45.29;97477.13;5106381;28;20185;-68
2023/06/29 01:01:34;;;;;;;7.37;4.03;;;;;;;22.46;45.26;97474.47;5088289;28;20198;-68
2023/06/29 01:03:59;;;;;;;7.33;3.70;;;;;;;22.47;45.41;97477.97;5088648;28;20272;-68
2023/06/29 01:06:31;;;;;;;3.57;3.23;;;;;;;22.45;45.20;97475.50;5078683;28;20193;-68
2023/06/29 01:09:04;;;;;;;7.00;3.60;;;;;;;22.43;45.37;97472.22;5069848;28;20196;-68
2023/06/29 01:11:31;;;;;;;5.53;3.53;;;;;;;22.41;45.44;97479.66;5057290;28;20432;-68
2023/06/29 01:13:57;;;;;;;4.93;3.70;;;;;;;22.35;45.35;97478.69;5078483;28;20691;-68
2023/06/29 01:16:22;;;;;;;4.00;3.33;;;;;;;22.31;45.71;97477.47;5087742;28;20427;-69
2023/06/29 01:18:48;;;;;;;8.87;3.60;;;;;;;22.32;45.30;97475.59;5074373;28;20193;-69
2023/06/29 01:21:14;;;;;;;4.23;3.80;;;;;;;22.29;45.64;97476.88;5072265;28;20200;-69
2023/06/29 01:23:40;;;;;;;5.40;3.40;;;;;;;22.28;45.88;97475.25;5088616;28;20545;-69
2023/06/29 01:26:05;;;;;;;7.93;4.13;;;;;;;22.29;45.62;97474.22;5072924;28;20518;-69
2023/06/29 01:28:32;;;;;;;15.03;3.80;;;;;;;22.31;45.60;97463.28;5094584;28;20219;-69
2023/06/29 01:31:02;;;;;;;5.70;3.80;;;;;;;22.30;45.68;97467.84;5087496;28;20675;-69
2023/06/29 01:33:28;;;;;;;5.73;3.80;;;;;;;22.25;45.78;97462.31;5088662;28;20443;-68
2023/06/29 01:36:05;;;;;;;4.60;4.13;;;;;;;22.18;45.48;97459.72;5089232;28;20558;-69
2023/06/29 01:38:36;;;;;;;4.90;3.70;;;;;;;22.15;45.61;97462.84;5073928;28;20542;-68
2023/06/29 01:41:03;;;;;;;8.97;5.60;;;;;;;22.11;45.76;97459.00;5096193;28;20412;-69
2023/06/29 01:43:29;;;;;;;11.30;8.87;;;;;;;22.12;46.10;97465.13;5099381;28;20444;-69
2023/06/29 01:45:55;;;;;;;6.80;5.60;;;;;;;22.06;46.00;97456.97;5086702;28;20439;-71
2023/06/29 01:48:21;;;;;;;8.87;7.23;;;;;;;22.06;46.13;97451.66;5065389;28;20460;-69
2023/06/29 01:50:48;;;;;;;7.77;5.50;;;;;;;22.02;46.09;97457.66;5069506;28;20216;-69
2023/06/29 01:53:13;;;;;;;6.40;5.80;;;;;;;22.02;46.06;97460.31;5088760;28;20670;-69
2023/06/29 01:55:39;;;;;;;7.77;6.43;;;;;;;21.94;45.99;97450.75;5054773;28;20498;-69
2023/06/29 01:58:04;;;;;;;7.33;6.40;;;;;;;21.94;46.41;97453.41;5087528;28;20298;-70
2023/06/29 02:00:29;;;;;;;6.87;5.30;;;;;;;21.94;46.24;97454.22;5090042;28;20280;-69
2023/06/29 02:02:55;;;;;;;10.90;8.07;;;;;;;21.90;46.17;97449.53;5087421;28;20288;-69
2023/06/29 02:05:21;;;;;;;10.17;8.43;;;;;;;21.87;46.49;97456.13;5088632;28;20181;-69
2023/06/29 02:07:46;;;;;;;9.97;8.10;;;;;;;21.88;46.70;97452.44;5087760;28;20675;-70
2023/06/29 02:10:12;;;;;;;12.40;9.60;;;;;;;21.81;46.41;97454.31;5088288;28;20434;-69
2023/06/29 02:12:39;;;;;;;6.40;5.80;;;;;;;21.76;46.73;97441.66;5084644;28;20193;-68
2023/06/29 02:15:05;;;;;;;9.83;8.53;;;;;;;21.78;46.86;97450.25;5099456;28;20205;-68
2023/06/29 02:17:31;;;;;;;8.77;7.63;;;;;;;21.80;46.99;97444.69;5098043;28;20459;-69
2023/06/29 02:19:56;;;;;;;10.97;8.37;;;;;;;21.80;46.72;97447.34;5091384;28;20431;-69
2023/06/29 02:22:22;;;;;;;9.10;6.40;;;;;;;21.82;46.91;97447.16;5092123;28;20204;-69
2023/06/29 02:24:47;;;;;;;7.00;5.43;;;;;;;21.81;46.86;97446.31;5073253;28;20192;-70
2023/06/29 02:27:13;;;;;;;7.40;6.70;;;;;;;21.82;46.80;97439.97;5099495;28;20350;-68
2023/06/29 02:29:38;;;;;;;6.50;4.73;;;;;;;21.83;46.57;97448.78;5091206;28;20289;-68
2023/06/29 02:32:04;;;;;;;6.70;5.50;;;;;;;21.80;46.74;97442.03;5092588;28;20233;-70
2023/06/29 02:34:30;;;;;;;4.53;4.13;;;;;;;21.81;46.88;97437.53;5092039;28;20201;-69
2023/06/29 02:36:55;;;;;;;6.30;5.70;;;;;;;21.79;46.98;97435.09;5092205;28;20208;-69
2023/06/29 02:39:21;;;;;;;7.17;5.17;;;;;;;21.76;46.63;97435.50;5091415;28;20189;-69
2023/06/29 02:41:46;;;;;;;10.33;7.97;;;;;;;21.79;46.58;97435.09;5096799;28;20268;-69
2023/06/29 02:44:12;;;;;;;8.67;6.67;;;;;;;21.85;46.80;97434.19;5091125;28;20200;-68
2023/06/29 02:46:37;;;;;;;6.10;5.10;;;;;;;21.92;46.42;97429.63;5090235;28;20217;-68
2023/06/29 02:49:02;;;;;;;5.50;5.00;;;;;;;21.91;46.39;97429.81;5091938;28;20192;-68
2023/06/29 02:51:28;;;;;;;7.00;6.30;;;;;;;21.90;46.47;97423.69;5097987;28;20666;-68
2023/06/29 02:53:53;;;;;;;7.07;5.43;;;;;;;21.84;46.53;97427.22;5092642;28;20320;-69
2023/06/29 02:56:19;;;;;;;8.40;6.63;;;;;;;21.74;46.40;97422.38;5090795;28;20276;-68
2023/06/29 02:58:44;;;;;;;9.07;7.30;;;;;;;21.70;46.82;97421.19;5090816;28;20229;-68
2023/06/29 03:01:10;;;;;;;7.63;6.00;;;;;;;21.62;46.92;97424.97;5081815;28;20242;-69
2023/06/29 03:03:35;;;;;;;7.23;4.80;;;;;;;21.61;47.15;97426.00;5073074;28;20272;-68
2023/06/29 03:06:01;;;;;;;7.27;5.40;;;;;;;21.61;46.99;97423.31;5086739;28;20201;-68
2023/06/29 03:08:26;;;;;;;8.43;7.20;;;;;;;21.58;47.06;97423.72;5072583;28;20889;-68
2023/06/29 03:10:51;;;;;;;7.73;6.20;;;;;;;21.59;47.24;97425.38;5077388;28;20277;-69
2023/06/29 03:13:17;;;;;;;4.70;4.20;;;;;;;21.60;46.97;97421.69;5083816;28;20284;-68
2023/06/29 03:15:42;;;;;;;6.00;4.33;;;;;;;21.59;47.12;97420.06;5089179;28;20206;-69
2023/06/29 03:18:08;;;;;;;9.17;4.40;;;;;;;21.49;47.19;97417.84;5089326;28;20305;-68
2023/06/29 03:20:33;;;;;;;6.03;4.77;;;;;;;21.43;47.11;97415.22;5089639;28;20697;-69
2023/06/29 03:22:59;;;;;;;8.63;6.13;;;;;;;21.42;47.41;97418.94;5089091;28;20722;-69
2023/06/29 03:25:24;;;;;;;4.67;4.20;;;;;;;21.43;47.33;97421.38;5089639;28;20290;-69
2023/06/29 03:27:50;;;;;;;5.93;5.17;;;;;;;21.44;47.32;97416.84;5088743;28;20217;-70
2023/06/29 03:30:15;;;;;;;8.90;5.27;;;;;;;21.40;47.35;97413.81;5089168;28;20194;-69
2023/06/29 03:32:41;;;;;;;7.00;6.00;;;;;;;21.36;47.34;97423.28;5097495;28;20190;-69
2023/06/29 03:35:07;;;;;;;8.13;6.90;;;;;;;21.33;47.36;97424.53;5088569;28;20714;-69
2023/06/29 03:37:33;;;;;;;10.83;6.07;;;;;;;21.25;47.58;97424.81;5092183;28;20296;-69
2023/06/29 03:39:58;;;;;;;9.07;6.27;;;;;;;21.30;47.78;97416.16;5088393;28;20522;-68
2023/06/29 03:42:24;;;;;;;8.80;5.83;;;;;;;21.30;48.04;97416.94;5090167;28;20217;-68
2023/06/29 03:44:49;;;;;;;7.57;5.00;;;;;;;21.29;47.82;97415.34;5087216;28;20303;-69
2023/06/29 03:47:15;;;;;;;7.40;6.30;;;;;;;21.29;47.96;97411.84;5087854;28;20202;-68
2023/06/29 03:49:40;;;;;;;8.07;6.00;;;;;;;21.26;47.50;97413.09;5086684;28;20694;-68
2023/06/29 03:52:06;;;;;;;6.60;5.13;;;;;;;21.27;48.11;97421.91;5089344;28;20281;-69
2023/06/29 03:54:31;;;;;;;6.70;5.00;;;;;;;21.27;48.12;97409.41;5089492;28;20243;-68
2023/06/29 03:56:57;;;;;;;9.70;5.33;;;;;;;21.28;47.87;97416.38;5069745;28;20271;-68
2023/06/29 03:59:22;;;;;;;7.20;5.80;;;;;;;21.28;47.96;97412.88;5089703;28;20197;-69
2023/06/29 04:01:48;;;;;;;6.40;5.70;;;;;;;21.28;48.24;97411.03;5095927;28;20249;-69
2023/06/29 04:04:13;;;;;;;7.03;4.90;;;;;;;21.30;48.19;97416.94;5093044;28;20276;-68
2023/06/29 04:06:38;;;;;;;8.90;5.83;;;;;;;21.34;48.02;97417.38;5087947;28;20296;-69
2023/06/29 04:09:04;;;;;;;7.20;5.33;;;;;;;21.40;48.30;97413.00;5089554;28;20274;-69
2023/06/29 04:11:29;;;;;;;6.80;5.80;;;;;;;21.49;47.73;97417.03;5093251;28;20685;-69
2023/06/29 04:13:55;;;;;;;7.13;6.03;;;;;;;21.54;47.78;97411.03;5088231;28;20217;-69
2023/06/29 04:16:20;;;;;;;10.83;6.07;;;;;;;21.52;47.42;97408.59;5094927;28;20577;-70
2023/06/29 04:18:46;;;;;;;6.03;5.27;;;;;;;21.56;47.88;97414.31;5087934;28;20188;-70
2023/06/29 04:21:11;;;;;;;5.80;5.20;;;;;;;21.60;47.91;97405.69;5093639;28;20653;-68
2023/06/29 04:23:36;;;;;;;6.53;5.23;;;;;;;21.70;47.48;97396.38;5087637;28;20634;-69
2023/06/29 04:26:02;;;;;;;6.10;4.60;;;;;;;21.76;47.14;97401.66;5087943;28;20221;-69
2023/06/29 04:28:33;;;;;;;7.73;4.50;;;;;;;21.79;47.16;97405.75;5088477;28;20225;-70
2023/06/29 04:30:59;;;;;;;6.60;5.10;;;;;;;21.76;47.70;97408.84;5070049;28;21054;-69
2023/06/29 04:33:24;;;;;;;7.17;5.27;;;;;;;21.76;47.57;97411.50;5088598;28;20427;-69
2023/06/29 04:35:50;;;;;;;5.70;5.10;;;;;;;21.72;47.47;97404.97;5089856;28;20293;-71
2023/06/29 04:38:17;;;;;;;5.50;4.67;;;;;;;21.74;47.65;97400.25;5089559;28;20274;-68
2023/06/29 04:40:43;;;;;;;6.50;4.60;;;;;;;21.75;47.60;97399.22;5087650;28;20277;-69
2023/06/29 04:43:08;;;;;;;7.73;4.80;;;;;;;21.76;48.02;97408.84;5095416;28;20435;-69
2023/06/29 04:45:34;;;;;;;8.30;5.77;;;;;;;21.81;47.91;97400.97;5091785;28;20196;-69
2023/06/29 04:48:00;;;;;;;6.20;5.13;;;;;;;21.87;47.57;97405.44;5090280;28;20681;-69
2023/06/29 04:50:30;;;;;;;4.90;4.40;;;;;;;21.90;47.83;97402.34;5093604;28;20193;-69
2023/06/29 04:52:58;;;;;;;7.20;4.50;;;;;;;21.94;47.71;97406.19;5096589;28;20225;-68
2023/06/29 04:55:24;;;;;;;11.57;5.23;;;;;;;21.90;47.34;97402.34;5089310;28;20459;-69
2023/06/29 04:57:49;;;;;;;5.90;4.60;;;;;;;21.96;47.27;97400.66;5087070;28;20435;-69
2023/06/29 05:00:15;;;;;;;5.93;4.87;;;;;;;21.96;46.92;97397.16;5088792;28;20192;-68
2023/06/29 05:02:41;;;;;;;4.47;4.07;;;;;;;22.03;47.00;97396.03;5077489;28;20729;-68
2023/06/29 05:05:07;;;;;;;6.13;4.47;;;;;;;22.11;47.19;97391.47;5070646;28;20182;-69
2023/06/29 05:07:34;;;;;;;6.83;4.60;;;;;;;22.17;47.20;97388.72;5088138;28;20843;-68
2023/06/29 05:09:59;;;;;;;5.63;4.83;;;;;;;22.23;47.28;97397.69;5087427;28;20935;-68
2023/06/29 05:12:25;;;;;;;7.23;4.30;;;;;;;22.31;46.80;97393.88;5082084;28;20527;-68
2023/06/29 05:14:50;;;;;;;5.07;4.50;;;;;;;22.36;46.53;97397.56;5095920;28;20208;-69
2023/06/29 05:17:17;;;;;;;8.20;4.50;;;;;;;22.42;46.54;97398.53;5098738;28;20205;-68
2023/06/29 05:19:43;;;;;;;5.97;4.37;;;;;;;22.50;46.18;97392.88;5090426;28;20764;-68
2023/06/29 05:22:08;;;;;;;5.60;4.50;;;;;;;22.61;46.28;97393.16;5079208;28;20518;-68
2023/06/29 05:24:34;;;;;;;5.93;4.10;;;;;;;22.71;46.05;97393.44;5081555;28;20269;-68
2023/06/29 05:26:59;;;;;;;7.73;4.80;;;;;;;22.80;45.60;97389.41;5086456;28;20634;-69
2023/06/29 05:29:24;;;;;;;4.53;3.67;;;;;;;22.85;45.35;97389.53;5081416;28;20213;-68
2023/06/29 05:31:50;;;;;;;6.10;4.77;;;;;;;22.95;45.31;97396.19;5084818;28;20276;-68
2023/06/29 05:34:15;;;;;;;6.07;4.23;;;;;;;22.99;45.06;97395.53;5098655;28;20207;-67
2023/06/29 05:36:41;;;;;;;7.23;4.30;;;;;;;23.03;45.20;97398.56;5086373;28;20270;-68
2023/06/29 05:39:06;;;;;;;7.83;5.00;;;;;;;23.10;45.18;97398.47;5079674;28;20300;-68
2023/06/29 05:41:32;;;;;;;8.60;4.60;;;;;;;23.12;45.18;97389.16;5092125;28;20199;-67
2023/06/29 05:43:57;;;;;;;11.03;4.97;;;;;;;23.17;44.96;97391.13;5084256;28;20245;-68
2023/06/29 05:46:23;;;;;;;6.40;4.03;;;;;;;23.27;44.66;97396.78;5087676;28;20198;-69
2023/06/29 05:48:48;;;;;;;6.60;3.80;;;;;;;23.36;44.64;97389.22;5083696;28;20190;-70
2023/06/29 05:51:14;;;;;;;10.93;4.30;;;;;;;23.51;44.36;97382.63;5090680;28;20704;-70
2023/06/29 05:53:39;;;;;;;6.53;4.10;;;;;;;23.64;44.07;97385.06;5102493;28;20656;-71
2023/06/29 05:56:04;;;;;;;6.63;4.10;;;;;;;23.75;43.59;97380.78;5091880;28;20681;-70
2023/06/29 05:58:30;;;;;;;10.87;4.53;;;;;;;23.86;43.42;97387.16;5092195;28;20209;-70
2023/06/29 06:00:55;;;;;;;11.80;4.70;;;;;;;23.90;43.29;97383.78;5091399;28;20189;-68
2023/06/29 06:03:22;;;;;;;9.93;5.20;;;;;;;23.96;43.14;97383.94;5094682;28;20731;-68
2023/06/29 06:05:47;;;;;;;4.80;4.07;;;;;;;24.02;42.56;97391.00;5091833;28;20552;-70
2023/06/29 06:08:13;;;;;;;9.67;4.10;;;;;;;24.02;42.25;97386.50;5091149;28;20466;-69
2023/06/29 06:10:39;;;;;;;7.70;3.90;;;;;;;24.08;41.97;97388.22;5076918;28;20214;-71
2023/06/29 06:13:05;;;;;;;18.33;3.80;;;;;;;24.20;42.29;97379.34;5096058;28;20522;-71
2023/06/29 06:15:30;;;;;;;9.63;3.80;;;;;;;24.31;42.18;97383.06;5104569;28;20508;-69
2023/06/29 06:17:56;;;;;;;10.83;3.40;;;;;;;24.42;41.67;97373.38;5098450;28;20217;-69
2023/06/29 06:20:21;;;;;;;6.27;3.43;;;;;;;24.54;41.33;97382.19;5101589;28;20201;-70
2023/06/29 06:22:46;;;;;;;7.00;3.63;;;;;;;24.57;40.32;97379.03;5101015;28;20188;-70
2023/06/29 06:25:14;;;;;;;7.60;3.57;;;;;;;24.57;40.83;97371.00;5112128;28;20330;-69
2023/06/29 06:27:41;;;;;;;7.47;3.27;;;;;;;24.69;40.05;97373.63;5100793;28;20218;-70
2023/06/29 06:30:07;;;;;;;6.07;3.03;;;;;;;24.83;39.72;97374.97;5091422;28;20428;-69
2023/06/29 06:32:32;;;;;;;8.20;3.00;;;;;;;25.01;38.99;97370.47;5091452;28;20947;-67
2023/06/29 06:34:58;;;;;;;4.43;2.70;;;;;;;25.13;37.99;97379.25;5097244;28;20470;-70
2023/06/29 06:37:23;;;;;;;5.70;2.63;;;;;;;25.31;38.08;97374.69;5090932;28;20214;-70
2023/06/29 06:39:49;;;;;;;3.70;2.77;;;;;;;25.47;37.80;97372.31;5090669;28;20189;-71
2023/06/29 06:42:14;;;;;;;4.83;2.83;;;;;;;25.52;37.29;97370.50;5097307;28;20182;-68
2023/06/29 06:44:51;;;;;;;5.00;3.13;;;;;;;25.55;37.00;97375.41;5091438;28;20213;-71
2023/06/29 06:47:16;;;;;;;5.27;2.97;;;;;;;25.72;37.42;97374.53;5087300;28;20737;-69
2023/06/29 06:49:42;;;;;;;5.00;3.03;;;;;;;25.92;37.53;97368.66;5056499;28;20432;-70
2023/06/29 06:52:07;;;;;;;5.80;3.00;;;;;;;26.07;37.31;97373.44;5097571;28;20229;-70
2023/06/29 06:54:33;;;;;;;6.87;3.43;;;;;;;26.24;37.14;97364.50;5098697;28;20335;-69
2023/06/29 06:56:58;;;;;;;5.73;3.20;;;;;;;26.40;37.14;97369.03;5090257;28;20224;-69
2023/06/29 06:59:24;;;;;;;3.33;3.00;;;;;;;26.56;36.60;97366.50;5090891;28;20619;-69
2023/06/29 07:01:49;;;;;;;4.40;2.80;;;;;;;26.65;36.35;97359.63;5089753;28;20280;-71
2023/06/29 07:04:15;;;;;;;4.87;2.87;;;;;;;26.80;36.40;97361.66;5096968;28;20212;-69
2023/06/29 07:06:40;;;;;;;9.93;2.90;;;;;;;26.92;36.40;97361.53;5090586;28;20213;-69
2023/06/29 07:09:07;;;;;;;4.67;2.80;;;;;;;27.07;36.05;97358.16;5090092;28;20822;-70
2023/06/29 07:11:33;;;;;;;3.93;2.53;;;;;;;27.13;34.86;97352.56;5091367;28;20560;-69
2023/06/29 07:13:59;;;;;;;5.00;3.03;;;;;;;27.19;34.71;97355.31;5090390;28;20491;-69
2023/06/29 07:16:25;;;;;;;3.17;2.57;;;;;;;27.28;34.90;97345.69;5090200;28;21024;-70
2023/06/29 07:19:14;;;;;;;7.07;3.00;;;;;;;27.26;35.27;97351.34;5093275;28;20685;-68
2023/06/29 07:21:40;;;;;;;6.63;3.20;;;;;;;27.43;35.25;97348.50;5090432;28;20287;-71
2023/06/29 07:24:06;;;;;;;5.20;2.70;;;;;;;27.58;34.99;97342.44;5093189;28;20931;-71
2023/06/29 07:26:31;;;;;;;7.40;3.00;;;;;;;27.71;34.96;97343.88;5072218;28;20198;-70
2023/06/29 07:28:57;;;;;;;6.63;2.70;;;;;;;27.78;34.04;97348.19;5087352;28;20542;-70
2023/06/29 07:31:24;;;;;;;7.33;2.90;;;;;;;27.88;33.65;97345.56;5072222;28;20637;-70
2023/06/29 07:33:51;;;;;;;11.20;2.93;;;;;;;28.04;33.36;97346.44;5098833;28;20193;-71
2023/06/29 07:36:16;;;;;;;6.60;3.73;;;;;;;28.25;33.17;97341.19;5095225;28;20986;-71
2023/06/29 07:38:43;;;;;;;8.40;3.17;;;;;;;28.46;33.37;97344.75;5093737;28;20543;-71
2023/06/29 07:41:08;;;;;;;7.37;3.03;;;;;;;28.53;33.14;97342.63;5092471;28;20189;-70
2023/06/29 07:43:34;;;;;;;5.17;2.97;;;;;;;28.52;32.74;97346.38;5077573;28;20424;-68
2023/06/29 07:46:01;;;;;;;6.93;3.17;;;;;;;28.28;31.97;97338.78;5089832;28;20265;-71
2023/06/29 07:48:27;;;;;;;4.97;2.67;;;;;;;28.24;32.40;97340.38;5089620;28;20218;-70
2023/06/29 07:50:52;;;;;;;2.87;2.27;;;;;;;28.24;32.56;97339.56;5089328;28;20423;-70
2023/06/29 07:53:18;;;;;;;7.23;3.07;;;;;;;28.25;32.29;97330.41;5096006;28;20966;-69
2023/06/29 07:55:44;;;;;;;5.70;2.50;;;;;;;28.37;32.84;97339.06;5093915;28;20201;-70
2023/06/29 07:58:09;;;;;;;4.27;2.67;;;;;;;28.47;32.11;97338.31;5089669;28;20220;-69
2023/06/29 08:00:34;;;;;;;7.50;3.83;;;;;;;28.49;31.75;97341.50;5090114;28;20194;-69
2023/06/29 08:03:00;;;;;;;9.07;3.80;;;;;;;28.37;31.11;97339.06;5088518;28;20274;-72
2023/06/29 08:05:25;;;;;;;12.23;3.10;;;;;;;28.35;31.74;97335.81;5090001;28;20228;-70
2023/06/29 08:07:51;;;;;;;6.03;2.97;;;;;;;28.48;32.13;97337.22;5098116;28;20232;-71
2023/06/29 08:10:16;;;;;;;6.33;2.90;;;;;;;28.54;31.72;97332.66;5097275;28;20186;-70
2023/06/29 08:12:42;;;;;;;3.43;2.40;;;;;;;28.54;31.78;97329.97;5085857;28;20201;-72
2023/06/29 08:15:07;;;;;;;6.33;2.70;;;;;;;28.50;31.10;97319.72;5096825;28;20758;-70
2023/06/29 08:17:33;;;;;;;4.67;2.43;;;;;;;28.30;30.74;97339.31;5088836;28;20245;-69
2023/06/29 08:19:58;;;;;;;3.80;2.07;;;;;;;28.44;31.21;97334.22;5090042;28;20239;-69
2023/06/29 08:22:24;;;;;;;3.40;2.27;;;;;;;28.66;31.24;97327.84;5096405;28;20857;-70
2023/06/29 08:24:49;;;;;;;4.50;2.77;;;;;;;28.75;31.38;97328.13;5089463;28;20212;-72
2023/06/29 08:27:14;;;;;;;5.23;2.50;;;;;;;28.84;31.61;97313.06;5096523;28;20212;-70
2023/06/29 08:29:40;;;;;;;5.80;2.30;;;;;;;28.87;31.14;97317.09;5089299;28;20339;-68
2023/06/29 08:32:07;;;;;;;4.10;2.00;;;;;;;29.07;31.69;97325.19;5088843;28;20574;-69
2023/06/29 08:34:33;;;;;;;8.40;2.33;;;;;;;29.05;30.49;97321.94;5089108;28;20217;-68
2023/06/29 08:36:58;;;;;;;4.83;2.00;;;;;;;29.05;30.56;97327.34;5087932;28;20493;-69
2023/06/29 08:39:24;;;;;;;4.00;2.53;;;;;;;29.12;30.38;97316.28;5088774;28;20252;-70
2023/06/29 08:41:50;;;;;;;7.43;2.60;;;;;;;29.15;30.05;97317.66;5095579;28;20284;-69
2023/06/29 08:44:15;;;;;;;3.97;2.40;;;;;;;29.19;30.62;97308.72;5078350;28;20188;-69
2023/06/29 08:46:41;;;;;;;6.53;1.87;;;;;;;28.98;29.00;97317.91;5088700;28;20436;-69
2023/06/29 08:49:08;;;;;;;3.63;2.07;;;;;;;28.82;29.47;97312.50;5088005;28;20564;-70
2023/06/29 08:51:36;;;;;;;5.47;2.33;;;;;;;28.66;29.57;97317.84;5077968;28;20427;-69
2023/06/29 08:54:01;;;;;;;7.93;2.60;;;;;;;28.67;29.89;97310.56;5075660;28;20963;-70
2023/06/29 08:56:27;;;;;;;3.20;1.80;;;;;;;28.78;29.70;97306.84;5088960;28;20438;-71
2023/06/29 08:58:53;;;;;;;3.93;1.90;;;;;;;28.86;29.99;97313.56;5088880;28;20678;-70
2023/06/29 09:01:19;;;;;;;3.83;2.30;;;;;;;28.93;29.93;97306.03;5070860;28;20197;-68
2023/06/29 09:03:44;;;;;;;5.23;2.50;;;;;;;29.01;29.65;97301.19;5070232;28;20181;-69
2023/06/29 09:06:10;;;;;;;9.80;2.10;;;;;;;29.23;30.57;97299.03;5086432;28;20198;-69
2023/06/29 09:08:37;;;;;;;12.80;2.93;;;;;;;29.37;30.70;97291.19;5088321;28;20270;-70
2023/06/29 09:11:03;;;;;;;3.37;2.30;;;;;;;29.50;30.15;97299.81;5091472;28;20199;-68
2023/06/29 09:13:30;;;;;;;6.00;2.30;;;;;;;29.67;29.45;97300.31;5088685;28;20431;-69
2023/06/29 09:16:00;;;;;;;6.70;2.70;;;;;;;29.93;29.46;97297.50;5088126;28;20455;-68
2023/06/29 09:18:26;;;;;;;6.90;2.60;;;;;;;30.06;29.58;97306.97;5087801;28;20446;-71
2023/06/29 09:20:55;;;;;;;7.50;2.47;;;;;;;30.25;29.02;97295.50;5087937;28;20432;-70
2023/06/29 09:23:21;;;;;;;4.23;2.63;;;;;;;30.40;28.81;97295.44;5088817;28;20251;-70
2023/06/29 09:25:49;;;;;;;5.50;4.10;;;;;;;30.61;28.68;97287.25;5088608;28;20531;-70
2023/06/29 09:28:15;;;;;;;5.90;2.70;;;;;;;30.72;27.96;97291.47;5096380;28;20451;-71
2023/06/29 09:30:41;;;;;;;2.80;2.60;;;;;;;30.69;27.73;97288.50;5090316;28;20424;-69
2023/06/29 09:33:08;;;;;;;15.10;2.70;;;;;;;30.76;27.56;97297.91;5095660;28;20607;-68
2023/06/29 09:35:34;;;;;;;3.33;1.83;;;;;;;30.85;26.67;97300.03;5087839;28;20251;-69
2023/06/29 09:38:02;;;;;;;4.27;2.20;;;;;;;30.96;26.66;97290.75;5087026;28;20455;-68
2023/06/29 09:40:28;;;;;;;5.00;2.50;;;;;;;31.03;26.07;97291.22;5091546;28;20424;-69
2023/06/29 09:42:54;;;;;;;2.50;2.03;;;;;;;31.01;26.35;97293.41;5093965;28;20431;-69
2023/06/29 09:45:20;;;;;;;3.30;2.07;;;;;;;31.05;26.60;97291.75;5088206;28;20461;-69
2023/06/29 09:47:49;;;;;;;3.90;2.10;;;;;;;31.13;26.37;97292.28;5086853;28;20221;-69
2023/06/29 09:50:22;;;;;;;4.60;3.03;;;;;;;31.11;26.82;97281.69;5088029;28;20213;-69
2023/06/29 09:52:51;;;;;;;5.60;2.03;;;;;;;31.16;27.16;97283.56;5089636;28;20493;-70
2023/06/29 09:55:17;;;;;;;3.37;1.67;;;;;;;31.33;26.70;97283.97;5087906;28;20982;-69
2023/06/29 09:57:45;;;;;;;6.77;2.80;;;;;;;31.41;26.29;97274.41;5095991;28;20450;-70
2023/06/29 10:00:12;;;;;;;3.63;2.40;;;;;;;31.43;26.31;97271.41;5088018;28;20455;-70
2023/06/29 10:02:40;;;;;;;11.30;2.20;;;;;;;31.61;26.63;97273.38;5070062;28;20489;-70
2023/06/29 10:05:07;;;;;;;10.17;2.30;;;;;;;31.91;26.55;97271.41;5087396;28;20446;-69
2023/06/29 10:07:33;;;;;;;2.23;2.00;;;;;;;32.11;25.86;97269.56;5087580;28;20456;-70
2023/06/29 10:09:59;;;;;;;9.40;2.20;;;;;;;32.42;25.96;97269.16;5088125;28;20835;-69
2023/06/29 10:12:27;;;;;;;4.87;1.90;;;;;;;32.63;25.55;97270.47;5075109;28;20434;-69
2023/06/29 10:14:55;;;;;;;3.57;2.03;;;;;;;32.73;24.75;97263.28;5073436;28;20213;-70
2023/06/29 10:17:33;;;;;;;2.47;1.70;;;;;;;32.84;24.49;97264.75;5087361;28;21267;-69
2023/06/29 10:19:59;;;;;;;2.93;2.00;;;;;;;33.01;24.16;97260.69;5072722;28;20959;-69
2023/06/29 10:22:25;;;;;;;2.63;2.37;;;;;;;33.22;24.80;97256.50;5094608;28;20446;-68
2023/06/29 10:24:56;;;;;;;2.43;2.23;;;;;;;33.13;24.74;97250.16;5068993;28;20435;-69
2023/06/29 10:27:24;;;;;;;3.93;2.10;;;;;;;33.26;25.10;97261.31;5079115;28;20511;-68
2023/06/29 10:29:50;;;;;;;4.37;2.30;;;;;;;33.26;24.74;97255.91;5086846;28;20435;-71
2023/06/29 10:32:29;;;;;;;3.40;2.33;;;;;;;33.21;24.07;97254.88;5087511;28;20432;-71
2023/06/29 10:35:11;;;;;;;5.73;2.27;;;;;;;33.16;24.53;97252.25;5088105;28;20205;-72
2023/06/29 10:37:39;;;;;;;3.40;2.00;;;;;;;33.20;24.56;97247.84;5086192;28;20850;-70
2023/06/29 10:40:10;;;;;;;10.23;2.87;;;;;;;33.19;23.85;97248.16;5101009;28;20432;-71
2023/06/29 10:42:39;;;;;;;4.20;2.33;;;;;;;33.14;24.15;97234.66;5098061;28;20467;-70
2023/06/29 10:45:24;;;;;;;3.00;2.70;;;;;;;33.47;25.05;97238.13;5072923;28;20434;-70
2023/06/29 10:47:56;;;;;;;8.10;2.60;;;;;;;33.75;23.85;97227.28;5068402;28;20459;-69
2023/06/29 10:50:43;;;;;;;3.50;2.23;;;;;;;34.03;23.60;97231.88;5099355;28;20423;-70
2023/06/29 10:53:10;;;;;;;6.10;2.47;;;;;;;34.28;23.33;97225.06;5092490;28;20442;-69
2023/06/29 10:55:42;;;;;;;2.70;2.00;;;;;;;34.40;22.79;97216.34;5091444;28;20598;-70
2023/06/29 10:58:24;;;;;;;3.83;2.37;;;;;;;34.03;23.44;97221.00;5093488;28;20454;-71
2023/06/29 11:00:51;;;;;;;2.47;2.20;;;;;;;34.33;23.15;97211.34;5092800;28;20862;-71
2023/06/29 11:03:18;;;;;;;3.77;2.37;;;;;;;34.48;23.11;97214.84;5098940;28;20434;-69
2023/06/29 11:05:46;;;;;;;4.80;2.43;;;;;;;34.65;23.27;97193.22;5072969;28;20428;-70
2023/06/29 11:08:12;;;;;;;4.20;2.13;;;;;;;34.76;22.41;97213.63;5094097;28;20971;-70
2023/06/29 11:10:37;;;;;;;5.67;2.73;;;;;;;34.96;22.58;97213.44;5096464;28;20511;-70
2023/06/29 11:13:07;;;;;;;4.13;2.97;;;;;;;34.91;22.68;97206.16;5094637;28;20292;-70
2023/06/29 11:15:33;;;;;;;4.53;2.80;;;;;;;35.00;22.54;97204.31;5090801;28;20745;-70
2023/06/29 11:18:02;;;;;;;8.40;3.20;;;;;;;34.91;22.14;97197.97;5098304;28;20477;-70
2023/06/29 11:20:28;;;;;;;3.20;2.80;;;;;;;34.81;22.66;97206.41;5090271;28;20908;-69
2023/06/29 11:22:57;;;;;;;5.33;2.97;;;;;;;34.33;23.02;97205.91;5090755;28;20455;-70
2023/06/29 11:25:22;;;;;;;5.67;3.80;;;;;;;34.45;22.97;97206.19;5091073;28;20919;-69
2023/06/29 11:27:48;;;;;;;4.77;3.63;;;;;;;34.71;22.33;97199.34;5098072;28;20454;-70